sensor_id;sensor_type;location;lat;lon;timestamp;temperature;humidity
19847;DHT22;10084;50.518;8.588;2023-03-14T00:00:06;12.40;87.70
19847;DHT22;10084;50.518;8.588;2023-03-14T00:02:31;12.40;83.50
19847;DHT22;10084;50.518;8.588;2023-03-14T00:04:57;12.40;85.50
19847;DHT22;10084;50.518;8.588;2023-03-14T00:07:23;12.40;86.10
19847;DHT22;10084;50.518;8.588;2023-03-14T00:09:50;12.40;83.70
19847;DHT22;10084;50.518;8.588;2023-03-14T00:12:16;12.40;90.10
19847;DHT22;10084;50.518;8.588;2023-03-14T00:14:42;12.30;92.00
19847;DHT22;10084;50.518;8.588;2023-03-14T00:17:09;12.40;89.70
19847;DHT22;10084;50.518;8.588;2023-03-14T00:19:35;12.60;85.50
19847;DHT22;10084;50.518;8.588;2023-03-14T00:22:00;12.30;89.50
19847;DHT22;10084;50.518;8.588;2023-03-14T00:24:26;12.30;80.20
19847;DHT22;10084;50.518;8.588;2023-03-14T00:26:52;12.30;80.60
19847;DHT22;10084;50.518;8.588;2023-03-14T00:29:17;12.30;80.20
19847;DHT22;10084;50.518;8.588;2023-03-14T00:31:44;12.30;80.00
19847;DHT22;10084;50.518;8.588;2023-03-14T00:34:10;12.40;79.00
19847;DHT22;10084;50.518;8.588;2023-03-14T00:36:35;12.40;77.50
19847;DHT22;10084;50.518;8.588;2023-03-14T00:39:01;12.40;77.20
19847;DHT22;10084;50.518;8.588;2023-03-14T00:41:30;12.40;77.20
19847;DHT22;10084;50.518;8.588;2023-03-14T00:43:55;12.40;77.20
19847;DHT22;10084;50.518;8.588;2023-03-14T00:46:21;12.40;77.30
19847;DHT22;10084;50.518;8.588;2023-03-14T00:48:47;12.40;77.50
19847;DHT22;10084;50.518;8.588;2023-03-14T00:51:13;12.40;77.80
19847;DHT22;10084;50.518;8.588;2023-03-14T00:53:43;12.40;78.20
19847;DHT22;10084;50.518;8.588;2023-03-14T00:56:11;12.40;78.40
19847;DHT22;10084;50.518;8.588;2023-03-14T00:58:37;12.40;79.10
19847;DHT22;10084;50.518;8.588;2023-03-14T01:01:08;12.40;81.00
19847;DHT22;10084;50.518;8.588;2023-03-14T01:06:14;12.30;85.90
19847;DHT22;10084;50.518;8.588;2023-03-14T01:08:42;12.30;82.70
19847;DHT22;10084;50.518;8.588;2023-03-14T01:11:12;12.00;81.20
19847;DHT22;10084;50.518;8.588;2023-03-14T01:13:38;12.20;79.60
19847;DHT22;10084;50.518;8.588;2023-03-14T01:16:07;12.20;83.30
19847;DHT22;10084;50.518;8.588;2023-03-14T01:18:37;12.10;79.40
19847;DHT22;10084;50.518;8.588;2023-03-14T01:21:10;12.10;82.10
19847;DHT22;10084;50.518;8.588;2023-03-14T01:23:36;12.20;92.80
19847;DHT22;10084;50.518;8.588;2023-03-14T01:26:02;12.50;90.10
19847;DHT22;10084;50.518;8.588;2023-03-14T01:30:54;12.00;84.80
19847;DHT22;10084;50.518;8.588;2023-03-14T01:33:20;12.10;79.40
19847;DHT22;10084;50.518;8.588;2023-03-14T01:35:45;12.10;79.70
19847;DHT22;10084;50.518;8.588;2023-03-14T01:38:11;12.10;81.00
19847;DHT22;10084;50.518;8.588;2023-03-14T01:40:44;12.00;81.90
19847;DHT22;10084;50.518;8.588;2023-03-14T01:43:19;12.00;82.80
19847;DHT22;10084;50.518;8.588;2023-03-14T01:51:02;11.90;80.60
19847;DHT22;10084;50.518;8.588;2023-03-14T01:53:30;11.90;82.20
19847;DHT22;10084;50.518;8.588;2023-03-14T01:55:56;11.80;80.00
19847;DHT22;10084;50.518;8.588;2023-03-14T02:00:53;11.70;73.20
19847;DHT22;10084;50.518;8.588;2023-03-14T02:03:20;11.70;73.80
19847;DHT22;10084;50.518;8.588;2023-03-14T02:05:47;11.70;73.90
19847;DHT22;10084;50.518;8.588;2023-03-14T02:08:20;11.70;74.00
19847;DHT22;10084;50.518;8.588;2023-03-14T02:10:52;11.70;74.10
19847;DHT22;10084;50.518;8.588;2023-03-14T02:13:24;11.70;74.10
19847;DHT22;10084;50.518;8.588;2023-03-14T02:16:11;11.70;74.20
19847;DHT22;10084;50.518;8.588;2023-03-14T02:18:51;11.60;74.20
19847;DHT22;10084;50.518;8.588;2023-03-14T02:21:49;11.60;74.20
19847;DHT22;10084;50.518;8.588;2023-03-14T02:24:45;11.60;74.30
19847;DHT22;10084;50.518;8.588;2023-03-14T02:27:15;11.60;74.40
19847;DHT22;10084;50.518;8.588;2023-03-14T02:29:55;11.60;74.40
19847;DHT22;10084;50.518;8.588;2023-03-14T02:32:22;11.70;74.50
19847;DHT22;10084;50.518;8.588;2023-03-14T02:34:57;11.60;74.60
19847;DHT22;10084;50.518;8.588;2023-03-14T02:37:30;11.60;75.10
19847;DHT22;10084;50.518;8.588;2023-03-14T02:39:58;11.60;75.90
19847;DHT22;10084;50.518;8.588;2023-03-14T02:42:24;11.70;76.80
19847;DHT22;10084;50.518;8.588;2023-03-14T02:47:30;11.70;78.20
19847;DHT22;10084;50.518;8.588;2023-03-14T02:50:03;11.70;77.70
19847;DHT22;10084;50.518;8.588;2023-03-14T02:52:29;11.70;78.00
19847;DHT22;10084;50.518;8.588;2023-03-14T02:54:56;11.70;78.20
19847;DHT22;10084;50.518;8.588;2023-03-14T02:57:22;11.80;78.90
19847;DHT22;10084;50.518;8.588;2023-03-14T02:59:48;11.80;78.70
19847;DHT22;10084;50.518;8.588;2023-03-14T03:02:17;11.80;79.20
19847;DHT22;10084;50.518;8.588;2023-03-14T03:04:43;11.80;82.80
19847;DHT22;10084;50.518;8.588;2023-03-14T03:07:09;11.70;77.40
19847;DHT22;10084;50.518;8.588;2023-03-14T03:12:00;11.70;76.40
19847;DHT22;10084;50.518;8.588;2023-03-14T03:14:28;11.70;76.90
19847;DHT22;10084;50.518;8.588;2023-03-14T03:16:57;11.70;77.40
19847;DHT22;10084;50.518;8.588;2023-03-14T03:19:23;11.70;78.00
19847;DHT22;10084;50.518;8.588;2023-03-14T03:21:49;11.70;78.70
19847;DHT22;10084;50.518;8.588;2023-03-14T03:24:14;11.70;79.70
19847;DHT22;10084;50.518;8.588;2023-03-14T03:26:40;11.60;81.10
19847;DHT22;10084;50.518;8.588;2023-03-14T03:29:08;11.50;73.10
19847;DHT22;10084;50.518;8.588;2023-03-14T03:31:37;11.40;73.70
19847;DHT22;10084;50.518;8.588;2023-03-14T03:34:02;11.40;73.70
19847;DHT22;10084;50.518;8.588;2023-03-14T03:36:28;11.30;73.80
19847;DHT22;10084;50.518;8.588;2023-03-14T03:38:54;11.30;73.80
19847;DHT22;10084;50.518;8.588;2023-03-14T03:41:20;11.30;73.90
19847;DHT22;10084;50.518;8.588;2023-03-14T03:43:47;11.20;74.60
19847;DHT22;10084;50.518;8.588;2023-03-14T03:46:15;11.20;73.90
19847;DHT22;10084;50.518;8.588;2023-03-14T03:48:41;11.10;73.90
19847;DHT22;10084;50.518;8.588;2023-03-14T03:51:07;11.10;73.90
19847;DHT22;10084;50.518;8.588;2023-03-14T03:53:34;11.10;74.00
19847;DHT22;10084;50.518;8.588;2023-03-14T03:56:02;11.00;74.10
19847;DHT22;10084;50.518;8.588;2023-03-14T03:58:28;11.00;74.60
19847;DHT22;10084;50.518;8.588;2023-03-14T04:00:55;11.00;76.20
19847;DHT22;10084;50.518;8.588;2023-03-14T04:03:21;11.00;78.50
19847;DHT22;10084;50.518;8.588;2023-03-14T04:08:23;11.00;79.40
19847;DHT22;10084;50.518;8.588;2023-03-14T04:10:49;10.90;83.20
19847;DHT22;10084;50.518;8.588;2023-03-14T04:15:50;11.00;91.20
19847;DHT22;10084;50.518;8.588;2023-03-14T04:18:23;10.90;88.20
19847;DHT22;10084;50.518;8.588;2023-03-14T04:20:57;10.80;85.60
19847;DHT22;10084;50.518;8.588;2023-03-14T04:23:27;10.90;84.00
19847;DHT22;10084;50.518;8.588;2023-03-14T04:25:54;10.80;82.20
19847;DHT22;10084;50.518;8.588;2023-03-14T04:28:21;10.90;81.90
19847;DHT22;10084;50.518;8.588;2023-03-14T04:30:47;10.90;82.70
19847;DHT22;10084;50.518;8.588;2023-03-14T04:33:18;10.80;79.80
19847;DHT22;10084;50.518;8.588;2023-03-14T04:35:54;10.80;77.90
19847;DHT22;10084;50.518;8.588;2023-03-14T04:38:20;10.80;77.60
19847;DHT22;10084;50.518;8.588;2023-03-14T04:40:46;10.80;76.70
19847;DHT22;10084;50.518;8.588;2023-03-14T04:43:14;10.80;76.00
19847;DHT22;10084;50.518;8.588;2023-03-14T04:45:50;10.80;75.80
19847;DHT22;10084;50.518;8.588;2023-03-14T04:48:16;10.80;76.10
19847;DHT22;10084;50.518;8.588;2023-03-14T04:50:42;10.80;77.00
19847;DHT22;10084;50.518;8.588;2023-03-14T04:53:08;10.90;78.10
19847;DHT22;10084;50.518;8.588;2023-03-14T04:55:34;10.90;79.60
19847;DHT22;10084;50.518;8.588;2023-03-14T04:58:00;11.00;79.60
19847;DHT22;10084;50.518;8.588;2023-03-14T05:00:26;11.00;82.80
19847;DHT22;10084;50.518;8.588;2023-03-14T05:03:02;11.10;80.20
19847;DHT22;10084;50.518;8.588;2023-03-14T05:05:48;11.10;74.60
19847;DHT22;10084;50.518;8.588;2023-03-14T05:08:33;11.20;74.60
19847;DHT22;10084;50.518;8.588;2023-03-14T05:11:25;11.20;74.80
19847;DHT22;10084;50.518;8.588;2023-03-14T05:14:16;11.30;74.20
19847;DHT22;10084;50.518;8.588;2023-03-14T05:16:54;11.30;74.60
19847;DHT22;10084;50.518;8.588;2023-03-14T05:19:32;11.40;74.10
19847;DHT22;10084;50.518;8.588;2023-03-14T05:22:19;11.40;74.10
19847;DHT22;10084;50.518;8.588;2023-03-14T05:25:01;11.50;74.00
19847;DHT22;10084;50.518;8.588;2023-03-14T05:27:47;11.40;73.80
19847;DHT22;10084;50.518;8.588;2023-03-14T05:30:51;11.50;74.70
19847;DHT22;10084;50.518;8.588;2023-03-14T05:33:41;11.50;74.40
19847;DHT22;10084;50.518;8.588;2023-03-14T05:36:27;11.60;74.00
19847;DHT22;10084;50.518;8.588;2023-03-14T05:39:01;11.60;74.40
19847;DHT22;10084;50.518;8.588;2023-03-14T05:41:46;11.60;73.60
19847;DHT22;10084;50.518;8.588;2023-03-14T05:44:22;11.60;74.20
19847;DHT22;10084;50.518;8.588;2023-03-14T05:47:07;11.60;73.50
19847;DHT22;10084;50.518;8.588;2023-03-14T05:50:11;11.60;73.40
19847;DHT22;10084;50.518;8.588;2023-03-14T05:52:51;11.60;73.50
19847;DHT22;10084;50.518;8.588;2023-03-14T05:55:35;11.60;73.30
19847;DHT22;10084;50.518;8.588;2023-03-14T05:58:17;11.60;73.40
19847;DHT22;10084;50.518;8.588;2023-03-14T06:01:04;11.60;73.30
19847;DHT22;10084;50.518;8.588;2023-03-14T06:03:48;11.70;73.20
19847;DHT22;10084;50.518;8.588;2023-03-14T06:06:14;11.70;73.20
19847;DHT22;10084;50.518;8.588;2023-03-14T06:08:42;11.70;73.20
19847;DHT22;10084;50.518;8.588;2023-03-14T06:11:10;11.70;73.20
19847;DHT22;10084;50.518;8.588;2023-03-14T06:13:35;11.70;73.10
19847;DHT22;10084;50.518;8.588;2023-03-14T06:16:02;11.70;73.30
19847;DHT22;10084;50.518;8.588;2023-03-14T06:18:27;11.70;73.10
19847;DHT22;10084;50.518;8.588;2023-03-14T06:20:55;11.80;73.10
19847;DHT22;10084;50.518;8.588;2023-03-14T06:23:24;11.80;73.10
19847;DHT22;10084;50.518;8.588;2023-03-14T06:25:51;11.80;73.10
19847;DHT22;10084;50.518;8.588;2023-03-14T06:28:17;11.80;73.10
19847;DHT22;10084;50.518;8.588;2023-03-14T06:30:43;11.90;73.00
19847;DHT22;10084;50.518;8.588;2023-03-14T06:33:10;11.90;72.90
19847;DHT22;10084;50.518;8.588;2023-03-14T06:35:36;11.90;72.90
19847;DHT22;10084;50.518;8.588;2023-03-14T06:38:02;11.90;72.90
19847;DHT22;10084;50.518;8.588;2023-03-14T06:40:28;11.90;73.10
19847;DHT22;10084;50.518;8.588;2023-03-14T06:43:02;11.90;73.30
19847;DHT22;10084;50.518;8.588;2023-03-14T06:45:30;11.90;73.70
19847;DHT22;10084;50.518;8.588;2023-03-14T06:47:57;11.80;73.00
19847;DHT22;10084;50.518;8.588;2023-03-14T06:50:30;11.80;73.00
19847;DHT22;10084;50.518;8.588;2023-03-14T06:52:57;11.80;73.00
19847;DHT22;10084;50.518;8.588;2023-03-14T06:55:25;11.80;73.00
19847;DHT22;10084;50.518;8.588;2023-03-14T06:57:52;11.80;73.00
19847;DHT22;10084;50.518;8.588;2023-03-14T07:00:18;11.80;73.00
19847;DHT22;10084;50.518;8.588;2023-03-14T07:02:44;11.80;73.00
19847;DHT22;10084;50.518;8.588;2023-03-14T07:05:21;11.80;73.00
19847;DHT22;10084;50.518;8.588;2023-03-14T07:07:47;11.80;73.00
19847;DHT22;10084;50.518;8.588;2023-03-14T07:10:13;11.80;73.10
19847;DHT22;10084;50.518;8.588;2023-03-14T07:12:38;11.90;73.00
19847;DHT22;10084;50.518;8.588;2023-03-14T07:15:04;12.00;73.10
19847;DHT22;10084;50.518;8.588;2023-03-14T07:17:30;12.10;72.90
19847;DHT22;10084;50.518;8.588;2023-03-14T07:19:57;12.20;72.70
19847;DHT22;10084;50.518;8.588;2023-03-14T07:22:23;12.30;72.60
19847;DHT22;10084;50.518;8.588;2023-03-14T07:24:49;12.30;75.20
19847;DHT22;10084;50.518;8.588;2023-03-14T07:27:14;12.40;75.60
19847;DHT22;10084;50.518;8.588;2023-03-14T07:29:40;11.60;72.30
19847;DHT22;10084;50.518;8.588;2023-03-14T07:32:07;12.40;72.20
19847;DHT22;10084;50.518;8.588;2023-03-14T07:34:33;12.40;72.40
19847;DHT22;10084;50.518;8.588;2023-03-14T07:36:59;12.40;76.00
19847;DHT22;10084;50.518;8.588;2023-03-14T07:39:25;12.40;72.00
19847;DHT22;10084;50.518;8.588;2023-03-14T07:41:59;12.40;71.90
19847;DHT22;10084;50.518;8.588;2023-03-14T07:44:24;12.50;72.10
19847;DHT22;10084;50.518;8.588;2023-03-14T07:46:50;12.60;72.10
19847;DHT22;10084;50.518;8.588;2023-03-14T07:49:16;12.70;72.30
19847;DHT22;10084;50.518;8.588;2023-03-14T07:51:42;12.70;72.10
19847;DHT22;10084;50.518;8.588;2023-03-14T07:54:10;12.90;71.70
19847;DHT22;10084;50.518;8.588;2023-03-14T07:56:36;12.90;71.60
19847;DHT22;10084;50.518;8.588;2023-03-14T07:59:01;12.90;71.90
19847;DHT22;10084;50.518;8.588;2023-03-14T08:01:27;12.90;71.50
19847;DHT22;10084;50.518;8.588;2023-03-14T08:03:53;12.90;71.60
19847;DHT22;10084;50.518;8.588;2023-03-14T08:06:19;12.90;71.60
19847;DHT22;10084;50.518;8.588;2023-03-14T08:08:44;12.90;71.60
19847;DHT22;10084;50.518;8.588;2023-03-14T08:11:10;12.90;71.50
19847;DHT22;10084;50.518;8.588;2023-03-14T08:13:37;12.90;71.50
19847;DHT22;10084;50.518;8.588;2023-03-14T08:16:04;12.90;71.50
19847;DHT22;10084;50.518;8.588;2023-03-14T08:18:30;12.90;71.50
19847;DHT22;10084;50.518;8.588;2023-03-14T08:20:56;12.90;71.40
19847;DHT22;10084;50.518;8.588;2023-03-14T08:23:21;12.90;71.50
19847;DHT22;10084;50.518;8.588;2023-03-14T08:25:49;12.90;71.50
19847;DHT22;10084;50.518;8.588;2023-03-14T08:28:16;13.00;71.40
19847;DHT22;10084;50.518;8.588;2023-03-14T08:30:41;13.00;71.30
19847;DHT22;10084;50.518;8.588;2023-03-14T08:33:07;13.00;71.30
19847;DHT22;10084;50.518;8.588;2023-03-14T08:35:33;13.00;71.40
19847;DHT22;10084;50.518;8.588;2023-03-14T08:37:59;13.00;71.40
19847;DHT22;10084;50.518;8.588;2023-03-14T08:40:24;13.10;71.40
19847;DHT22;10084;50.518;8.588;2023-03-14T08:42:50;13.10;71.30
19847;DHT22;10084;50.518;8.588;2023-03-14T08:45:16;13.10;71.30
19847;DHT22;10084;50.518;8.588;2023-03-14T08:47:43;13.20;71.30
19847;DHT22;10084;50.518;8.588;2023-03-14T08:50:10;13.20;71.30
19847;DHT22;10084;50.518;8.588;2023-03-14T08:52:36;13.40;73.30
19847;DHT22;10084;50.518;8.588;2023-03-14T08:55:04;13.50;81.30
19847;DHT22;10084;50.518;8.588;2023-03-14T08:57:29;13.60;86.50
19847;DHT22;10084;50.518;8.588;2023-03-14T08:59:56;13.60;90.10
19847;DHT22;10084;50.518;8.588;2023-03-14T09:02:23;13.60;89.10
19847;DHT22;10084;50.518;8.588;2023-03-14T09:04:50;13.60;89.90
19847;DHT22;10084;50.518;8.588;2023-03-14T09:09:43;13.20;92.10
19847;DHT22;10084;50.518;8.588;2023-03-14T09:12:09;12.10;91.00
19847;DHT22;10084;50.518;8.588;2023-03-14T09:14:36;13.60;90.80
19847;DHT22;10084;50.518;8.588;2023-03-14T09:17:03;13.60;88.90
19847;DHT22;10084;50.518;8.588;2023-03-14T09:19:29;13.60;90.40
19847;DHT22;10084;50.518;8.588;2023-03-14T09:21:57;13.70;94.60
19847;DHT22;10084;50.518;8.588;2023-03-14T09:26:49;13.80;90.90
19847;DHT22;10084;50.518;8.588;2023-03-14T09:29:15;13.90;79.00
19847;DHT22;10084;50.518;8.588;2023-03-14T09:31:40;14.20;90.90
19847;DHT22;10084;50.518;8.588;2023-03-14T09:34:06;14.10;78.00
19847;DHT22;10084;50.518;8.588;2023-03-14T09:36:32;14.20;80.20
19847;DHT22;10084;50.518;8.588;2023-03-14T09:38:58;14.40;80.80
19847;DHT22;10084;50.518;8.588;2023-03-14T09:41:31;14.50;82.20
19847;DHT22;10084;50.518;8.588;2023-03-14T09:44:51;14.60;87.10
19847;DHT22;10084;50.518;8.588;2023-03-14T09:46:58;14.70;84.60
19847;DHT22;10084;50.518;8.588;2023-03-14T09:49:34;14.60;85.00
19847;DHT22;10084;50.518;8.588;2023-03-14T09:52:06;14.70;89.00
19847;DHT22;10084;50.518;8.588;2023-03-14T09:57:05;15.50;70.00
19847;DHT22;10084;50.518;8.588;2023-03-14T09:59:36;16.10;69.00
19847;DHT22;10084;50.518;8.588;2023-03-14T10:02:19;16.40;68.10
19847;DHT22;10084;50.518;8.588;2023-03-14T10:04:46;16.40;67.50
19847;DHT22;10084;50.518;8.588;2023-03-14T10:07:15;16.40;67.40
19847;DHT22;10084;50.518;8.588;2023-03-14T10:09:43;16.20;67.30
19847;DHT22;10084;50.518;8.588;2023-03-14T10:12:09;16.00;67.30
19847;DHT22;10084;50.518;8.588;2023-03-14T10:14:37;15.80;67.30
19847;DHT22;10084;50.518;8.588;2023-03-14T10:17:11;15.50;67.40
19847;DHT22;10084;50.518;8.588;2023-03-14T10:19:50;15.30;67.70
19847;DHT22;10084;50.518;8.588;2023-03-14T10:22:17;15.10;68.10
19847;DHT22;10084;50.518;8.588;2023-03-14T10:24:51;15.00;68.50
19847;DHT22;10084;50.518;8.588;2023-03-14T10:27:21;14.90;68.60
19847;DHT22;10084;50.518;8.588;2023-03-14T10:29:55;14.80;68.70
19847;DHT22;10084;50.518;8.588;2023-03-14T10:32:23;14.80;68.90
19847;DHT22;10084;50.518;8.588;2023-03-14T10:38:00;14.60;68.80
19847;DHT22;10084;50.518;8.588;2023-03-14T10:40:37;14.60;68.80
19847;DHT22;10084;50.518;8.588;2023-03-14T10:43:05;14.50;68.90
19847;DHT22;10084;50.518;8.588;2023-03-14T10:45:44;14.50;68.90
19847;DHT22;10084;50.518;8.588;2023-03-14T10:48:22;14.50;68.90
19847;DHT22;10084;50.518;8.588;2023-03-14T10:50:54;14.50;69.00
19847;DHT22;10084;50.518;8.588;2023-03-14T10:53:20;14.40;69.00
19847;DHT22;10084;50.518;8.588;2023-03-14T10:55:46;14.40;69.10
19847;DHT22;10084;50.518;8.588;2023-03-14T11:03:45;14.20;69.60
19847;DHT22;10084;50.518;8.588;2023-03-14T11:06:32;14.20;69.90
19847;DHT22;10084;50.518;8.588;2023-03-14T11:11:39;14.50;70.10
19847;DHT22;10084;50.518;8.588;2023-03-14T11:16:59;14.70;70.00
19847;DHT22;10084;50.518;8.588;2023-03-14T11:24:58;14.60;70.30
19847;DHT22;10084;50.518;8.588;2023-03-14T11:35:30;14.20;70.50
19847;DHT22;10084;50.518;8.588;2023-03-14T11:38:29;14.10;70.80
19847;DHT22;10084;50.518;8.588;2023-03-14T11:40:57;13.90;71.10
19847;DHT22;10084;50.518;8.588;2023-03-14T11:43:33;13.80;71.20
19847;DHT22;10084;50.518;8.588;2023-03-14T11:51:24;13.30;90.60
19847;DHT22;10084;50.518;8.588;2023-03-14T11:53:59;13.00;76.50
19847;DHT22;10084;50.518;8.588;2023-03-14T11:59:01;12.60;78.20
19847;DHT22;10084;50.518;8.588;2023-03-14T12:01:38;12.40;75.50
19847;DHT22;10084;50.518;8.588;2023-03-14T12:04:16;12.20;75.50
19847;DHT22;10084;50.518;8.588;2023-03-14T12:06:48;12.10;76.60
19847;DHT22;10084;50.518;8.588;2023-03-14T12:09:16;11.90;78.60
19847;DHT22;10084;50.518;8.588;2023-03-14T12:11:52;11.80;80.30
19847;DHT22;10084;50.518;8.588;2023-03-14T12:14:27;11.80;78.40
19847;DHT22;10084;50.518;8.588;2023-03-14T12:16:59;11.70;81.60
19847;DHT22;10084;50.518;8.588;2023-03-14T12:19:31;11.60;82.00
19847;DHT22;10084;50.518;8.588;2023-03-14T12:22:02;11.60;79.00
19847;DHT22;10084;50.518;8.588;2023-03-14T12:24:33;11.50;76.20
19847;DHT22;10084;50.518;8.588;2023-03-14T12:27:02;11.40;76.60
19847;DHT22;10084;50.518;8.588;2023-03-14T12:29:28;11.40;76.80
19847;DHT22;10084;50.518;8.588;2023-03-14T12:34:31;11.30;77.10
19847;DHT22;10084;50.518;8.588;2023-03-14T12:37:03;11.30;77.70
19847;DHT22;10084;50.518;8.588;2023-03-14T12:50:14;11.60;85.60
19847;DHT22;10084;50.518;8.588;2023-03-14T12:55:37;11.80;82.80
19847;DHT22;10084;50.518;8.588;2023-03-14T13:00:39;13.10;90.00
19847;DHT22;10084;50.518;8.588;2023-03-14T13:06:01;13.60;85.00
19847;DHT22;10084;50.518;8.588;2023-03-14T13:11:20;14.00;84.90
19847;DHT22;10084;50.518;8.588;2023-03-14T13:13:57;13.60;82.30
19847;DHT22;10084;50.518;8.588;2023-03-14T13:16:24;13.50;80.70
19847;DHT22;10084;50.518;8.588;2023-03-14T13:19:02;13.30;80.00
19847;DHT22;10084;50.518;8.588;2023-03-14T13:21:35;13.00;79.70
19847;DHT22;10084;50.518;8.588;2023-03-14T13:24:04;12.90;80.40
19847;DHT22;10084;50.518;8.588;2023-03-14T13:26:39;12.90;80.70
19847;DHT22;10084;50.518;8.588;2023-03-14T13:29:25;13.00;81.70
19847;DHT22;10084;50.518;8.588;2023-03-14T13:31:57;13.10;84.40
19847;DHT22;10084;50.518;8.588;2023-03-14T13:34:31;13.10;82.50
19847;DHT22;10084;50.518;8.588;2023-03-14T13:36:58;13.00;81.60
19847;DHT22;10084;50.518;8.588;2023-03-14T13:39:25;12.90;80.80
19847;DHT22;10084;50.518;8.588;2023-03-14T13:41:52;12.70;81.40
19847;DHT22;10084;50.518;8.588;2023-03-14T13:47:20;12.40;79.10
19847;DHT22;10084;50.518;8.588;2023-03-14T13:49:48;12.10;82.80
19847;DHT22;10084;50.518;8.588;2023-03-14T13:52:31;11.90;83.60
19847;DHT22;10084;50.518;8.588;2023-03-14T13:54:59;11.80;83.80
19847;DHT22;10084;50.518;8.588;2023-03-14T13:57:26;11.70;83.80
19847;DHT22;10084;50.518;8.588;2023-03-14T14:00:06;11.60;83.90
19847;DHT22;10084;50.518;8.588;2023-03-14T14:02:33;11.50;79.80
19847;DHT22;10084;50.518;8.588;2023-03-14T14:05:01;11.40;79.80
19847;DHT22;10084;50.518;8.588;2023-03-14T14:07:27;11.30;81.20
19847;DHT22;10084;50.518;8.588;2023-03-14T14:09:54;11.20;84.90
19847;DHT22;10084;50.518;8.588;2023-03-14T14:12:27;11.00;84.60
19847;DHT22;10084;50.518;8.588;2023-03-14T14:14:58;10.90;86.90
19847;DHT22;10084;50.518;8.588;2023-03-14T14:17:32;10.90;89.10
19847;DHT22;10084;50.518;8.588;2023-03-14T14:20:02;10.90;87.60
19847;DHT22;10084;50.518;8.588;2023-03-14T14:22:30;10.90;87.90
19847;DHT22;10084;50.518;8.588;2023-03-14T14:24:56;11.00;89.60
19847;DHT22;10084;50.518;8.588;2023-03-14T14:29:59;11.10;90.70
19847;DHT22;10084;50.518;8.588;2023-03-14T14:32:25;11.20;90.90
19847;DHT22;10084;50.518;8.588;2023-03-14T14:34:58;11.20;92.10
19847;DHT22;10084;50.518;8.588;2023-03-14T14:37:26;11.20;84.30
19847;DHT22;10084;50.518;8.588;2023-03-14T14:39:55;11.20;83.90
19847;DHT22;10084;50.518;8.588;2023-03-14T14:42:25;11.10;88.00
19847;DHT22;10084;50.518;8.588;2023-03-14T14:44:52;11.00;87.90
19847;DHT22;10084;50.518;8.588;2023-03-14T14:47:20;10.90;88.20
19847;DHT22;10084;50.518;8.588;2023-03-14T14:49:51;10.90;87.40
19847;DHT22;10084;50.518;8.588;2023-03-14T14:52:21;10.70;82.10
19847;DHT22;10084;50.518;8.588;2023-03-14T14:54:57;10.60;81.80
19847;DHT22;10084;50.518;8.588;2023-03-14T14:59:55;10.30;70.00
19847;DHT22;10084;50.518;8.588;2023-03-14T15:02:47;10.20;70.70
19847;DHT22;10084;50.518;8.588;2023-03-14T15:05:18;10.00;70.90
19847;DHT22;10084;50.518;8.588;2023-03-14T15:07:44;9.90;71.00
19847;DHT22;10084;50.518;8.588;2023-03-14T15:10:16;9.90;71.20
19847;DHT22;10084;50.518;8.588;2023-03-14T15:12:42;9.90;71.40
19847;DHT22;10084;50.518;8.588;2023-03-14T15:15:09;9.90;71.50
19847;DHT22;10084;50.518;8.588;2023-03-14T15:17:36;9.90;71.40
19847;DHT22;10084;50.518;8.588;2023-03-14T15:20:04;9.90;71.30
19847;DHT22;10084;50.518;8.588;2023-03-14T15:22:30;9.90;71.10
19847;DHT22;10084;50.518;8.588;2023-03-14T15:24:56;9.80;71.00
19847;DHT22;10084;50.518;8.588;2023-03-14T15:27:22;9.80;71.00
19847;DHT22;10084;50.518;8.588;2023-03-14T15:29:48;9.80;70.90
19847;DHT22;10084;50.518;8.588;2023-03-14T15:32:16;9.70;70.90
19847;DHT22;10084;50.518;8.588;2023-03-14T15:34:43;9.60;71.00
19847;DHT22;10084;50.518;8.588;2023-03-14T15:37:11;9.60;71.10
19847;DHT22;10084;50.518;8.588;2023-03-14T15:39:38;9.50;71.10
19847;DHT22;10084;50.518;8.588;2023-03-14T15:42:04;9.50;71.30
19847;DHT22;10084;50.518;8.588;2023-03-14T15:44:30;9.50;71.30
19847;DHT22;10084;50.518;8.588;2023-03-14T15:46:56;9.60;71.50
19847;DHT22;10084;50.518;8.588;2023-03-14T15:49:21;9.60;71.30
19847;DHT22;10084;50.518;8.588;2023-03-14T15:51:48;9.70;71.30
19847;DHT22;10084;50.518;8.588;2023-03-14T15:54:14;9.70;71.10
19847;DHT22;10084;50.518;8.588;2023-03-14T15:56:40;9.70;71.00
19847;DHT22;10084;50.518;8.588;2023-03-14T15:59:06;9.70;70.90
19847;DHT22;10084;50.518;8.588;2023-03-14T16:01:31;9.70;70.90
19847;DHT22;10084;50.518;8.588;2023-03-14T16:03:57;9.60;70.90
19847;DHT22;10084;50.518;8.588;2023-03-14T16:06:23;9.60;70.90
19847;DHT22;10084;50.518;8.588;2023-03-14T16:08:49;9.60;70.90
19847;DHT22;10084;50.518;8.588;2023-03-14T16:11:15;9.60;70.90
19847;DHT22;10084;50.518;8.588;2023-03-14T16:13:43;9.50;70.90
19847;DHT22;10084;50.518;8.588;2023-03-14T16:16:10;9.40;70.90
19847;DHT22;10084;50.518;8.588;2023-03-14T16:18:38;9.30;71.00
19847;DHT22;10084;50.518;8.588;2023-03-14T16:21:12;9.30;70.90
19847;DHT22;10084;50.518;8.588;2023-03-14T16:23:38;9.10;75.40
19847;DHT22;10084;50.518;8.588;2023-03-14T16:26:08;8.90;84.00
19847;DHT22;10084;50.518;8.588;2023-03-14T16:28:34;8.70;87.60
19847;DHT22;10084;50.518;8.588;2023-03-14T16:31:06;8.40;88.70
19847;DHT22;10084;50.518;8.588;2023-03-14T16:33:33;8.30;90.10
19847;DHT22;10084;50.518;8.588;2023-03-14T16:36:00;8.20;90.20
19847;DHT22;10084;50.518;8.588;2023-03-14T16:38:31;8.10;90.10
19847;DHT22;10084;50.518;8.588;2023-03-14T16:41:02;8.00;90.30
19847;DHT22;10084;50.518;8.588;2023-03-14T16:43:29;8.00;90.80
19847;DHT22;10084;50.518;8.588;2023-03-14T16:45:59;7.90;91.10
19847;DHT22;10084;50.518;8.588;2023-03-14T16:48:26;7.90;91.30
19847;DHT22;10084;50.518;8.588;2023-03-14T16:50:52;7.80;90.90
19847;DHT22;10084;50.518;8.588;2023-03-14T16:58:13;7.60;93.40
19847;DHT22;10084;50.518;8.588;2023-03-14T17:00:39;7.60;91.70
19847;DHT22;10084;50.518;8.588;2023-03-14T17:03:05;7.60;91.70
19847;DHT22;10084;50.518;8.588;2023-03-14T17:05:31;7.50;92.30
19847;DHT22;10084;50.518;8.588;2023-03-14T17:07:57;7.50;93.50
19847;DHT22;10084;50.518;8.588;2023-03-14T17:10:23;7.50;93.80
19847;DHT22;10084;50.518;8.588;2023-03-14T17:12:49;7.40;93.60
19847;DHT22;10084;50.518;8.588;2023-03-14T17:15:15;7.50;93.30
19847;DHT22;10084;50.518;8.588;2023-03-14T17:17:40;7.40;92.50
19847;DHT22;10084;50.518;8.588;2023-03-14T17:20:07;7.40;92.70
19847;DHT22;10084;50.518;8.588;2023-03-14T17:22:34;7.40;92.90
19847;DHT22;10084;50.518;8.588;2023-03-14T17:25:00;7.30;92.50
19847;DHT22;10084;50.518;8.588;2023-03-14T17:27:27;7.40;92.80
19847;DHT22;10084;50.518;8.588;2023-03-14T17:29:53;7.40;92.70